Time;durP1;ratioP1;P1;durP2;ratioP2;P2;SDS_P1;SDS_P2;PMS_P1;PMS_P2;Temp;Humidity;BMP_temperature;BMP_pressure;BME280_temperature;BME280_humidity;BME280_pressure;Samples;Min_cycle;Max_cycle;Signal;HPM_P1;HPM_P2
2021/11/18 00:00:45;;;;;;;64.15;25.80;;;6.20;99.90;;;;;;5052401;28;20398;-75
2021/11/18 00:03:12;;;;;;;75.60;26.23;;;6.30;99.90;;;;;;5047193;28;20452;-77
2021/11/18 00:05:38;;;;;;;59.97;26.17;;;6.30;99.90;;;;;;5055070;28;20406;-75
2021/11/18 00:08:05;;;;;;;57.42;23.40;;;6.20;99.90;;;;;;5051754;28;20393;-75
2021/11/18 00:10:38;;;;;;;64.20;24.70;;;6.20;99.90;;;;;;5049872;28;20396;-76
2021/11/18 00:13:07;;;;;;;60.95;24.02;;;6.20;99.90;;;;;;5054093;28;20423;-76
2021/11/18 00:15:34;;;;;;;49.17;24.08;;;6.20;99.90;;;;;;5054487;28;20439;-76
2021/11/18 00:18:03;;;;;;;60.28;24.52;;;6.20;99.90;;;;;;5054946;28;20401;-76
2021/11/18 00:20:33;;;;;;;55.40;24.42;;;6.20;99.90;;;;;;5054679;28;20744;-76
2021/11/18 00:22:59;;;;;;;52.45;24.17;;;6.20;99.90;;;;;;5052443;28;20418;-76
2021/11/18 00:25:25;;;;;;;62.70;24.90;;;6.20;99.90;;;;;;5056835;28;20433;-78
2021/11/18 00:44:41;;;;;;;56.70;22.83;;;6.10;99.90;;;;;;5062361;28;20392;-80
2021/11/18 00:47:06;;;;;;;53.88;25.40;;;6.20;99.90;;;;;;5060340;28;20397;-73
2021/11/18 00:49:32;;;;;;;57.85;24.52;;;6.10;99.90;;;;;;5049269;28;20395;-74
2021/11/18 00:51:58;;;;;;;53.40;23.50;;;6.20;99.90;;;;;;5042893;28;20397;-73
2021/11/18 00:54:23;;;;;;;61.80;25.40;;;6.10;99.90;;;;;;5043490;28;20932;-74
2021/11/18 00:56:49;;;;;;;54.97;22.60;;;6.00;99.90;;;;;;5037613;28;20406;-74
2021/11/18 00:59:14;;;;;;;56.00;23.43;;;6.00;99.90;;;;;;5054370;28;20424;-74
2021/11/18 01:01:43;;;;;;;55.00;23.00;;;6.00;99.90;;;;;;5054179;28;20435;-74
2021/11/18 01:04:14;;;;;;;63.00;24.95;;;6.00;99.90;;;;;;5043779;28;20389;-74
2021/11/18 01:06:40;;;;;;;55.70;23.20;;;5.90;99.90;;;;;;5053145;28;20537;-75
2021/11/18 01:09:06;;;;;;;62.58;25.60;;;5.80;99.90;;;;;;5052771;28;20494;-74
2021/11/18 01:11:32;;;;;;;60.10;24.00;;;5.70;99.90;;;;;;5042310;28;20381;-75
2021/11/18 01:13:59;;;;;;;59.87;24.57;;;5.70;99.90;;;;;;5050658;28;20401;-74
2021/11/18 01:16:30;;;;;;;57.42;23.95;;;5.70;99.90;;;;;;5052249;28;20381;-74
2021/11/18 01:18:56;;;;;;;58.92;24.95;;;5.70;99.90;;;;;;5052388;28;20389;-74
2021/11/18 01:21:23;;;;;;;63.25;24.77;;;5.60;99.90;;;;;;5043760;28;20407;-74
2021/11/18 01:23:50;;;;;;;60.47;24.60;;;5.60;99.90;;;;;;5038619;28;20897;-73
2021/11/18 01:26:18;;;;;;;60.97;25.73;;;5.60;99.90;;;;;;5052656;28;20775;-74
2021/11/18 01:28:44;;;;;;;61.10;25.27;;;5.50;99.90;;;;;;5052987;28;20747;-73
2021/11/18 01:31:10;;;;;;;74.07;27.33;;;5.50;99.90;;;;;;5052311;28;20393;-74
2021/11/18 01:33:37;;;;;;;60.17;26.40;;;5.50;99.90;;;;;;5051993;28;20432;-73
2021/11/18 01:36:03;;;;;;;68.75;25.20;;;5.50;99.90;;;;;;5052732;28;20404;-73
2021/11/18 01:38:31;;;;;;;65.13;27.33;;;5.60;99.90;;;;;;5053278;28;20436;-73
2021/11/18 01:41:00;;;;;;;57.83;25.33;;;5.50;99.90;;;;;;5041024;28;20399;-74
2021/11/18 01:43:30;;;;;;;66.93;25.67;;;5.40;99.90;;;;;;5035847;28;20869;-75
2021/11/18 01:45:57;;;;;;;67.40;23.52;;;5.60;99.90;;;;;;5051836;28;20451;-74
2021/11/18 01:48:22;;;;;;;60.70;24.08;;;5.50;99.90;;;;;;5038118;28;20377;-74
2021/11/18 01:50:51;;;;;;;61.73;26.50;;;5.50;99.90;;;;;;5054275;28;20750;-74
2021/11/18 01:53:21;;;;;;;74.18;26.30;;;5.50;99.90;;;;;;5051568;28;20381;-74
2021/11/18 01:55:47;;;;;;;62.88;25.50;;;5.40;99.90;;;;;;5033128;28;20412;-73
2021/11/18 01:58:14;;;;;;;59.40;25.27;;;5.40;99.90;;;;;;5051758;28;20381;-74
2021/11/18 02:00:50;;;;;;;54.25;25.40;;;5.40;99.90;;;;;;5051891;28;20393;-74
2021/11/18 02:03:17;;;;;;;65.07;25.90;;;5.40;99.90;;;;;;5031910;28;20417;-74
2021/11/18 02:06:00;;;;;;;60.53;25.77;;;5.40;99.90;;;;;;5039505;28;20412;-74
2021/11/18 02:08:26;;;;;;;59.45;24.73;;;5.50;99.90;;;;;;5031355;28;20400;-74
2021/11/18 02:10:56;;;;;;;66.53;26.70;;;5.50;99.90;;;;;;5031501;28;20457;-74
2021/11/18 02:13:23;;;;;;;57.60;24.38;;;5.40;99.90;;;;;;5013201;28;20391;-75
2021/11/18 02:15:54;;;;;;;59.47;26.17;;;5.40;99.90;;;;;;5033526;28;20764;-73
2021/11/18 02:18:29;;;;;;;52.55;24.33;;;5.30;99.90;;;;;;5051115;28;20393;-74
2021/11/18 02:20:58;;;;;;;56.00;23.13;;;5.30;99.90;;;;;;5050459;28;20389;-75
2021/11/18 02:23:27;;;;;;;60.28;24.02;;;5.40;99.90;;;;;;5050671;28;20393;-74
2021/11/18 02:25:54;;;;;;;57.40;23.20;;;5.40;99.90;;;;;;5048884;28;20413;-74
2021/11/18 02:28:22;;;;;;;60.50;24.48;;;5.40;99.90;;;;;;5031218;28;20387;-73
2021/11/18 02:30:49;;;;;;;63.17;24.08;;;5.70;99.90;;;;;;5043066;28;20413;-72
2021/11/18 02:33:17;;;;;;;56.45;23.27;;;5.70;99.90;;;;;;5050666;28;20421;-73
2021/11/18 02:35:46;;;;;;;65.25;23.73;;;5.50;99.90;;;;;;5036626;28;20403;-73
2021/11/18 02:38:12;;;;;;;60.37;24.80;;;5.50;99.90;;;;;;5014043;28;20479;-73
2021/11/18 02:40:41;;;;;;;73.18;25.30;;;5.40;99.90;;;;;;5038009;28;20768;-74
2021/11/18 02:43:07;;;;;;;63.25;25.98;;;5.40;99.90;;;;;;5051407;28;20409;-74
2021/11/18 02:45:35;;;;;;;56.80;24.23;;;5.30;99.90;;;;;;5038165;28;21046;-74
2021/11/18 02:48:03;;;;;;;64.55;24.63;;;5.30;99.90;;;;;;5030931;28;20391;-74
2021/11/18 02:50:33;;;;;;;70.93;24.90;;;5.40;99.90;;;;;;5030977;28;20752;-75
2021/11/18 02:52:59;;;;;;;64.10;24.80;;;5.40;99.90;;;;;;5033674;28;20397;-74
2021/11/18 02:55:29;;;;;;;60.03;23.33;;;5.40;99.90;;;;;;5032576;28;20407;-74
2021/11/18 02:57:55;;;;;;;54.45;21.83;;;5.40;99.90;;;;;;5050743;28;20384;-73
2021/11/18 03:00:28;;;;;;;60.37;22.93;;;5.40;99.90;;;;;;5032978;28;20429;-74
2021/11/18 03:02:55;;;;;;;52.28;23.65;;;5.30;99.90;;;;;;5047516;28;20448;-74
2021/11/18 03:05:22;;;;;;;65.17;25.37;;;5.30;99.90;;;;;;5030947;28;20819;-74
2021/11/18 03:07:48;;;;;;;62.28;25.10;;;5.20;99.90;;;;;;5030388;28;20399;-74
2021/11/18 03:10:16;;;;;;;66.97;24.60;;;5.20;99.90;;;;;;5040051;28;20389;-74
2021/11/18 03:12:42;;;;;;;64.30;25.08;;;5.10;99.90;;;;;;5032001;28;20432;-74
2021/11/18 03:15:11;;;;;;;63.90;25.60;;;5.20;99.90;;;;;;5051091;28;20417;-74
2021/11/18 03:17:37;;;;;;;59.80;22.30;;;5.20;99.90;;;;;;5042420;28;20403;-73
2021/11/18 03:20:06;;;;;;;58.70;21.65;;;5.40;99.90;;;;;;5032014;28;20429;-75
2021/11/18 03:25:09;;;;;;;57.20;23.05;;;5.20;99.90;;;;;;5029192;28;20462;-73
2021/11/18 03:27:35;;;;;;;75.18;24.45;;;5.00;99.90;;;;;;5030865;28;20470;-73
2021/11/18 03:30:01;;;;;;;58.00;24.08;;;5.00;99.90;;;;;;5021505;28;20397;-73
2021/11/18 03:32:26;;;;;;;63.73;24.13;;;5.00;99.90;;;;;;5011359;28;20524;-73
2021/11/18 03:34:52;;;;;;;68.93;24.70;;;5.10;99.90;;;;;;4992241;28;20383;-73
2021/11/18 03:37:17;;;;;;;64.50;23.50;;;5.00;99.90;;;;;;4992340;28;20422;-74
2021/11/18 03:39:43;;;;;;;64.70;23.30;;;5.10;99.90;;;;;;5007100;28;20407;-73
2021/11/18 03:42:11;;;;;;;59.53;22.80;;;5.10;99.90;;;;;;5014714;28;20424;-73
2021/11/18 03:44:38;;;;;;;53.50;22.80;;;5.30;99.90;;;;;;5013831;28;20377;-72
2021/11/18 03:47:07;;;;;;;61.63;23.65;;;5.20;99.90;;;;;;5010801;28;20393;-72
2021/11/18 03:49:34;;;;;;;63.42;24.38;;;5.10;99.90;;;;;;5006555;28;20410;-73
2021/11/18 03:52:01;;;;;;;62.08;24.33;;;5.00;99.90;;;;;;4994925;28;20396;-73
2021/11/18 03:54:29;;;;;;;68.38;24.80;;;5.00;99.90;;;;;;5011299;28;20424;-72
2021/11/18 03:56:54;;;;;;;54.22;24.23;;;5.10;99.90;;;;;;5011852;28;20396;-73
2021/11/18 03:59:27;;;;;;;66.60;25.17;;;5.10;99.90;;;;;;5010781;28;21178;-74
2021/11/18 04:01:53;;;;;;;58.65;24.35;;;5.00;99.90;;;;;;4994161;28;20401;-72
2021/11/18 04:04:23;;;;;;;66.37;24.83;;;5.00;99.90;;;;;;5012906;28;20475;-73
2021/11/18 04:06:49;;;;;;;63.55;24.52;;;5.00;99.90;;;;;;4996052;28;20411;-72
2021/11/18 04:09:15;;;;;;;70.35;25.15;;;5.00;99.90;;;;;;4997985;28;20410;-72
2021/11/18 04:11:43;;;;;;;55.38;23.33;;;5.00;99.90;;;;;;4995784;28;20887;-73
2021/11/18 04:14:11;;;;;;;58.33;22.35;;;5.00;99.90;;;;;;4997353;28;20391;-73
2021/11/18 04:16:37;;;;;;;63.10;23.85;;;5.00;99.90;;;;;;5006488;28;20397;-70
2021/11/18 04:19:04;;;;;;;63.05;24.60;;;5.00;99.90;;;;;;5027696;28;20381;-72
2021/11/18 04:21:32;;;;;;;56.40;23.73;;;5.00;99.90;;;;;;5024759;28;20400;-72
2021/11/18 04:24:03;;;;;;;56.67;23.38;;;5.00;99.90;;;;;;5003289;28;20483;-73
2021/11/18 04:26:29;;;;;;;59.80;23.35;;;5.00;99.90;;;;;;5033159;28;20408;-73
2021/11/18 04:28:54;;;;;;;64.90;24.80;;;5.00;99.90;;;;;;5028272;28;20391;-72
2021/11/18 04:31:22;;;;;;;67.32;23.05;;;4.90;99.90;;;;;;5005506;28;20820;-72
2021/11/18 04:33:49;;;;;;;64.38;23.98;;;5.00;99.90;;;;;;4979824;28;20395;-72
2021/11/18 04:36:20;;;;;;;57.63;22.40;;;5.00;99.90;;;;;;5005253;28;20447;-72
2021/11/18 04:38:46;;;;;;;62.65;22.60;;;5.10;99.90;;;;;;5014198;28;20400;-74
2021/11/18 04:41:13;;;;;;;55.85;23.45;;;5.10;99.90;;;;;;4998673;28;21025;-73
2021/11/18 04:43:39;;;;;;;69.18;24.48;;;5.10;99.90;;;;;;4997996;28;20399;-74
2021/11/18 04:46:09;;;;;;;60.60;23.67;;;5.20;99.90;;;;;;5016349;28;20408;-74
2021/11/18 04:48:36;;;;;;;63.80;23.83;;;5.30;99.90;;;;;;5014413;28;20384;-74
2021/11/18 04:51:03;;;;;;;62.15;24.30;;;5.30;99.90;;;;;;4995367;28;20400;-73
2021/11/18 04:53:29;;;;;;;55.33;23.15;;;5.40;99.90;;;;;;5016016;28;20397;-72
2021/11/18 04:55:55;;;;;;;79.63;24.67;;;5.40;99.90;;;;;;5014168;28;20385;-72
2021/11/18 04:58:22;;;;;;;74.35;25.60;;;5.50;99.90;;;;;;5013627;28;20419;-72
2021/11/18 05:00:52;;;;;;;64.75;24.10;;;5.60;99.90;;;;;;5003392;28;20477;-72
2021/11/18 05:03:18;;;;;;;54.20;22.70;;;5.60;99.90;;;;;;4995055;28;20383;-72
2021/11/18 05:05:45;;;;;;;59.58;23.88;;;5.70;99.90;;;;;;5001900;28;20420;-74
2021/11/18 05:08:12;;;;;;;70.30;24.48;;;5.60;99.90;;;;;;5013403;28;20397;-72
2021/11/18 05:10:38;;;;;;;58.50;23.60;;;5.70;99.90;;;;;;4994853;28;20400;-72
2021/11/18 05:13:05;;;;;;;61.08;24.60;;;5.60;99.90;;;;;;5013203;28;20466;-72
2021/11/18 05:15:33;;;;;;;60.78;23.80;;;5.60;99.90;;;;;;5011514;28;20889;-73
2021/11/18 05:17:59;;;;;;;66.35;24.48;;;5.60;99.90;;;;;;5004874;28;20396;-72
2021/11/18 05:20:26;;;;;;;62.65;24.23;;;5.70;99.90;;;;;;5012952;28;20381;-73
2021/11/18 05:22:52;;;;;;;62.03;24.33;;;5.80;99.90;;;;;;4999993;28;20961;-72
2021/11/18 05:25:21;;;;;;;61.85;22.70;;;5.90;99.90;;;;;;4993223;28;20414;-73
2021/11/18 05:27:47;;;;;;;62.25;22.77;;;5.90;99.90;;;;;;4994273;28;20403;-71
2021/11/18 05:30:14;;;;;;;74.57;24.63;;;5.90;99.90;;;;;;5012652;28;20400;-73
2021/11/18 05:32:41;;;;;;;66.65;24.23;;;6.00;99.90;;;;;;5009175;28;20753;-71
2021/11/18 05:35:08;;;;;;;66.60;23.67;;;6.00;99.90;;;;;;5012363;28;20388;-71
2021/11/18 05:37:34;;;;;;;64.13;23.77;;;6.20;99.90;;;;;;5011592;28;20786;-72
2021/11/18 05:39:59;;;;;;;56.92;21.80;;;6.20;99.90;;;;;;5000153;28;20457;-72
2021/11/18 05:42:25;;;;;;;68.37;24.27;;;6.20;99.90;;;;;;4992589;28;20390;-72
2021/11/18 05:44:51;;;;;;;60.13;22.98;;;6.30;99.90;;;;;;4992828;28;20382;-72
2021/11/18 05:47:21;;;;;;;59.80;22.60;;;6.30;99.90;;;;;;5001925;28;20717;-72
2021/11/18 05:49:47;;;;;;;63.55;24.30;;;6.30;99.90;;;;;;5012097;28;20765;-73
2021/11/18 05:52:13;;;;;;;62.00;23.60;;;6.30;99.90;;;;;;5012049;28;20484;-72
2021/11/18 05:54:39;;;;;;;58.17;23.52;;;6.40;99.90;;;;;;4994931;28;20801;-72
2021/11/18 05:57:05;;;;;;;57.15;22.05;;;6.30;99.90;;;;;;5009796;28;20873;-73
2021/11/18 05:59:31;;;;;;;57.73;23.90;;;6.30;99.90;;;;;;5006450;28;20509;-73
2021/11/18 06:01:57;;;;;;;55.90;23.48;;;6.30;99.90;;;;;;5012947;28;20452;-73
2021/11/18 06:04:23;;;;;;;63.67;23.83;;;6.30;99.90;;;;;;5012752;28;20928;-73
2021/11/18 06:06:48;;;;;;;59.42;23.95;;;6.30;99.90;;;;;;5007793;28;20446;-73
2021/11/18 06:09:14;;;;;;;63.22;23.63;;;6.30;99.90;;;;;;4993997;28;20398;-74
2021/11/18 06:11:41;;;;;;;70.40;25.58;;;6.30;99.90;;;;;;4975740;28;20457;-73
2021/11/18 06:14:08;;;;;;;57.70;25.45;;;6.30;99.90;;;;;;4992155;28;20443;-74
2021/11/18 06:16:34;;;;;;;65.73;24.53;;;6.30;99.90;;;;;;4993565;28;20458;-73
2021/11/18 06:19:01;;;;;;;55.88;23.38;;;6.30;99.90;;;;;;5001721;28;20705;-74
2021/11/18 06:21:29;;;;;;;60.22;23.30;;;6.30;99.90;;;;;;4977095;28;20447;-74
2021/11/18 06:23:55;;;;;;;59.00;24.10;;;6.30;99.90;;;;;;5001296;28;20420;-74
2021/11/18 06:26:23;;;;;;;59.03;23.85;;;6.40;99.90;;;;;;4991012;28;20422;-74
2021/11/18 06:28:49;;;;;;;64.35;23.50;;;6.40;99.90;;;;;;4995783;28;20885;-73
2021/11/18 06:31:16;;;;;;;56.38;23.45;;;6.30;99.90;;;;;;5001650;28;20405;-74
2021/11/18 06:33:42;;;;;;;65.73;24.50;;;6.30;99.90;;;;;;5007997;28;20398;-73
2021/11/18 06:36:08;;;;;;;56.35;23.30;;;6.40;99.90;;;;;;5000558;28;20448;-72
2021/11/18 06:38:40;;;;;;;61.03;24.20;;;6.40;99.90;;;;;;5012002;28;20408;-74
2021/11/18 06:41:06;;;;;;;65.25;24.60;;;6.40;99.90;;;;;;5006387;28;20397;-73
2021/11/18 06:43:33;;;;;;;56.83;23.48;;;6.40;99.90;;;;;;5003144;28;20767;-72
2021/11/18 06:45:58;;;;;;;58.00;22.73;;;6.50;99.90;;;;;;4991875;28;20422;-72
2021/11/18 06:48:30;;;;;;;68.50;24.10;;;6.50;99.90;;;;;;4998467;28;20408;-74
2021/11/18 06:51:08;;;;;;;59.70;23.87;;;6.50;99.90;;;;;;5011879;28;20524;-77
2021/11/18 06:53:35;;;;;;;60.83;23.95;;;6.60;99.90;;;;;;5003491;28;20939;-76
2021/11/18 06:56:03;;;;;;;66.47;23.67;;;6.80;99.90;;;;;;5012769;28;20450;-79
2021/11/18 06:58:29;;;;;;;63.63;23.77;;;6.90;99.90;;;;;;4997270;28;20412;-78
2021/11/18 07:00:56;;;;;;;61.10;23.90;;;6.90;99.90;;;;;;4999155;28;20398;-78
2021/11/18 07:03:22;;;;;;;53.78;22.15;;;6.90;99.90;;;;;;4998972;28;20417;-78
2021/11/18 07:05:48;;;;;;;65.65;23.48;;;6.80;99.90;;;;;;5019600;28;20948;-78
2021/11/18 07:08:13;;;;;;;71.20;25.52;;;6.90;99.90;;;;;;5010021;28;20501;-80
2021/11/18 07:10:42;;;;;;;62.85;23.70;;;6.80;99.90;;;;;;5000222;28;20385;-78
2021/11/18 07:13:20;;;;;;;54.70;23.90;;;6.90;99.90;;;;;;5014995;28;20381;-79
2021/11/18 07:15:46;;;;;;;63.67;23.85;;;6.90;99.90;;;;;;5004486;28;20466;-78
2021/11/18 07:18:12;;;;;;;60.20;23.60;;;7.00;99.90;;;;;;4981772;28;20420;-80
2021/11/18 07:20:39;;;;;;;58.90;24.63;;;7.00;99.90;;;;;;5023219;28;20399;-78
2021/11/18 07:23:05;;;;;;;58.78;23.85;;;7.00;99.90;;;;;;5021360;28;20396;-76
2021/11/18 07:25:31;;;;;;;61.53;25.10;;;7.00;99.90;;;;;;5009047;28;20416;-78
2021/11/18 07:27:59;;;;;;;59.55;24.10;;;6.90;99.90;;;;;;5019354;28;20417;-78
2021/11/18 07:30:25;;;;;;;63.53;25.40;;;7.00;99.90;;;;;;5006870;28;20837;-79
2021/11/18 07:32:52;;;;;;;61.25;25.15;;;7.00;99.90;;;;;;5010945;28;20491;-80
2021/11/18 07:35:18;;;;;;;63.05;24.80;;;7.00;99.90;;;;;;5009285;28;20401;-78
2021/11/18 07:37:43;;;;;;;63.80;25.15;;;7.00;99.90;;;;;;5028930;28;20392;-78
2021/11/18 07:40:12;;;;;;;65.47;24.83;;;7.00;99.90;;;;;;5011952;28;20494;-78
2021/11/18 07:42:38;;;;;;;56.33;23.83;;;7.10;99.90;;;;;;5022225;28;20490;-79
2021/11/18 07:45:06;;;;;;;61.80;23.40;;;7.10;99.90;;;;;;5016996;28;20520;-79
2021/11/18 07:47:32;;;;;;;56.20;24.10;;;7.20;99.90;;;;;;5016462;28;20830;-79
2021/11/18 07:49:57;;;;;;;57.23;24.50;;;7.20;99.90;;;;;;5027387;28;20432;-75
2021/11/18 07:52:23;;;;;;;57.20;23.93;;;7.30;99.90;;;;;;5011685;28;20549;-77
2021/11/18 07:54:48;;;;;;;57.77;23.97;;;7.30;99.90;;;;;;5013296;28;20408;-74
2021/11/18 07:57:14;;;;;;;53.40;23.53;;;7.40;95.80;;;;;;5024235;28;20458;-75
2021/11/18 07:59:40;;;;;;;58.73;24.83;;;7.40;92.10;;;;;;4988898;28;20435;-81
2021/11/18 08:02:06;;;;;;;54.87;22.10;;;7.40;93.30;;;;;;5025242;28;20442;-78
2021/11/18 08:04:32;;;;;;;58.47;23.80;;;7.30;92.70;;;;;;5020004;28;20452;-78
2021/11/18 08:07:03;;;;;;;56.50;23.15;;;7.40;93.00;;;;;;5035075;28;20456;-79
2021/11/18 08:09:29;;;;;;;57.30;24.20;;;7.40;93.90;;;;;;5032294;28;20408;-80
2021/11/18 08:11:56;;;;;;;53.70;24.30;;;7.40;95.60;;;;;;4996931;28;20889;-75
2021/11/18 08:14:22;;;;;;;58.67;23.45;;;7.40;94.70;;;;;;5021989;28;20938;-78
2021/11/18 08:16:48;;;;;;;55.08;23.10;;;7.60;95.10;;;;;;5032880;28;20383;-78
2021/11/18 08:19:14;;;;;;;53.45;21.70;;;7.70;92.20;;;;;;5000255;28;20734;-76
2021/11/18 08:21:42;;;;;;;48.45;22.90;;;7.70;91.10;;;;;;5013876;28;20395;-74
2021/11/18 08:24:10;;;;;;;54.67;22.50;;;7.70;89.20;;;;;;5013520;28;20414;-74
2021/11/18 08:26:38;;;;;;;52.25;22.67;;;7.70;90.90;;;;;;5021610;28;20503;-77
2021/11/18 08:29:05;;;;;;;52.42;23.70;;;7.70;90.10;;;;;;5013584;28;20411;-76
2021/11/18 08:31:31;;;;;;;54.53;22.48;;;7.80;88.30;;;;;;4999421;28;20766;-78
2021/11/18 08:33:57;;;;;;;56.03;23.23;;;7.80;88.80;;;;;;5009081;28;20479;-74
2021/11/18 08:36:22;;;;;;;55.27;22.67;;;7.90;89.40;;;;;;5029920;28;20946;-72
2021/11/18 08:38:49;;;;;;;57.75;22.17;;;7.90;88.90;;;;;;5013263;28;20432;-76
2021/11/18 08:41:16;;;;;;;50.67;21.13;;;8.00;89.30;;;;;;5011886;28;20397;-73
2021/11/18 08:43:44;;;;;;;45.45;20.98;;;8.00;85.40;;;;;;5012960;28;20435;-73
2021/11/18 08:46:11;;;;;;;51.13;21.95;;;8.00;86.70;;;;;;5008919;28;20409;-75
2021/11/18 08:48:39;;;;;;;48.13;19.83;;;7.90;86.10;;;;;;5018706;28;20401;-74
2021/11/18 08:51:05;;;;;;;48.70;22.40;;;7.90;86.60;;;;;;5011704;28;20392;-76
2021/11/18 08:53:33;;;;;;;50.75;21.33;;;7.90;85.40;;;;;;5013328;28;20422;-74
2021/11/18 08:56:00;;;;;;;52.60;21.38;;;7.80;84.40;;;;;;5013424;28;20799;-74
2021/11/18 08:58:29;;;;;;;50.05;22.08;;;7.80;84.20;;;;;;5013499;28;20480;-74
2021/11/18 09:01:19;;;;;;;57.08;21.88;;;7.80;85.00;;;;;;5001307;28;20407;-77
2021/11/18 09:03:46;;;;;;;52.97;21.70;;;7.70;87.50;;;;;;4993139;28;20438;-74
2021/11/18 09:06:15;;;;;;;51.40;21.10;;;7.70;88.40;;;;;;4993459;28;20417;-75
2021/11/18 09:08:41;;;;;;;60.25;21.85;;;7.80;87.70;;;;;;5007115;28;20393;-75
2021/11/18 09:11:11;;;;;;;47.58;20.45;;;7.70;88.30;;;;;;5012698;28;20482;-77
2021/11/18 09:13:38;;;;;;;48.15;19.75;;;7.70;88.50;;;;;;5014048;28;20850;-77
2021/11/18 09:16:04;;;;;;;45.10;20.40;;;7.80;86.30;;;;;;5014344;28;20395;-78
2021/11/18 09:18:30;;;;;;;46.78;19.77;;;7.80;86.50;;;;;;5013565;28;20718;-77
2021/11/18 09:20:56;;;;;;;48.17;20.10;;;7.80;87.40;;;;;;5007076;28;20410;-78
2021/11/18 09:23:27;;;;;;;48.13;20.20;;;7.90;87.20;;;;;;5029817;23;20397;-77
2021/11/18 09:25:53;;;;;;;51.20;20.67;;;8.00;86.50;;;;;;5036650;28;20498;-76
2021/11/18 09:28:21;;;;;;;51.67;20.70;;;8.10;87.20;;;;;;5048458;28;20404;-78
2021/11/18 09:30:53;;;;;;;46.47;20.67;;;8.20;85.70;;;;;;5042818;28;20779;-77
2021/11/18 09:33:19;;;;;;;45.53;20.42;;;8.30;83.20;;;;;;5062437;28;20386;-79
2021/11/18 09:35:54;;;;;;;51.17;19.95;;;8.40;81.30;;;;;;5064749;28;20406;-77
2021/11/18 09:38:23;;;;;;;41.10;19.60;;;8.40;80.30;;;;;;5055734;28;20418;-78
2021/11/18 09:41:03;;;;;;;50.53;19.43;;;8.40;79.80;;;;;;5050631;28;20403;-80
2021/11/18 09:43:34;;;;;;;44.85;19.50;;;8.40;79.90;;;;;;5045378;28;20386;-81
2021/11/18 09:46:15;;;;;;;48.58;19.63;;;8.50;79.60;;;;;;5029697;28;20406;-79
2021/11/18 09:48:46;;;;;;;48.80;20.90;;;8.50;79.40;;;;;;5032951;28;20399;-78
2021/11/18 09:51:21;;;;;;;47.60;19.88;;;8.60;79.40;;;;;;5044164;28;20387;-78
2021/11/18 09:53:47;;;;;;;47.90;19.85;;;8.70;78.90;;;;;;5048353;28;20382;-80
2021/11/18 09:56:36;;;;;;;43.92;20.17;;;8.90;78.90;;;;;;5025567;28;20379;-78
2021/11/18 09:59:24;;;;;;;49.88;20.92;;;8.90;77.50;;;;;;5030695;28;20429;-78
2021/11/18 10:02:02;;;;;;;52.38;20.13;;;9.00;76.40;;;;;;5033048;28;20411;-79
2021/11/18 10:04:42;;;;;;;53.67;20.67;;;9.10;76.80;;;;;;5037504;28;20412;-78
2021/11/18 10:07:33;;;;;;;54.90;20.08;;;9.20;76.50;;;;;;5051486;28;20427;-81
2021/11/18 10:10:16;;;;;;;43.67;18.70;;;9.30;73.80;;;;;;5043982;28;20759;-77
2021/11/18 10:13:12;;;;;;;50.65;19.05;;;9.40;74.40;;;;;;5031478;28;20440;-79
2021/11/18 10:16:06;;;;;;;53.35;16.75;;;9.50;69.10;;;;;;5029872;28;20392;-79
2021/11/18 10:18:45;;;;;;;47.22;17.67;;;9.50;69.50;;;;;;5005884;28;20400;-79
2021/11/18 10:21:23;;;;;;;45.03;16.52;;;9.60;69.40;;;;;;5054457;28;20393;-78
2021/11/18 10:23:55;;;;;;;45.72;17.10;;;9.80;63.90;;;;;;5044228;28;20401;-80
2021/11/18 10:26:40;;;;;;;47.22;16.05;;;9.90;63.80;;;;;;5050972;28;20431;-80
2021/11/18 10:29:11;;;;;;;51.60;16.00;;;10.00;61.00;;;;;;5029629;28;20421;-77
2021/11/18 10:31:45;;;;;;;47.97;16.42;;;10.00;61.40;;;;;;5033112;28;20399;-79
2021/11/18 10:34:12;;;;;;;42.58;15.02;;;10.10;62.10;;;;;;5049193;28;20492;-79
2021/11/18 10:36:53;;;;;;;40.03;15.93;;;10.20;57.70;;;;;;5050911;28;20402;-79
2021/11/18 10:39:26;;;;;;;46.15;14.95;;;10.30;57.90;;;;;;5054677;28;20407;-79
2021/11/18 10:42:09;;;;;;;50.03;15.50;;;10.40;56.80;;;;;;5032467;28;20434;-80
2021/11/18 10:44:50;;;;;;;47.88;15.30;;;10.40;57.60;;;;;;5023507;28;20403;-80
2021/11/18 10:47:32;;;;;;;43.33;16.00;;;10.50;57.30;;;;;;5049956;28;20397;-79
2021/11/18 10:50:09;;;;;;;45.80;15.70;;;10.60;56.20;;;;;;5041570;28;20413;-79
2021/11/18 10:52:34;;;;;;;52.55;16.38;;;10.70;56.30;;;;;;5053333;28;20856;-79
2021/11/18 10:55:09;;;;;;;52.20;15.25;;;10.90;54.20;;;;;;5045665;28;20412;-77
2021/11/18 10:57:35;;;;;;;42.72;15.77;;;10.90;52.00;;;;;;5015391;28;20447;-76
2021/11/18 11:00:30;;;;;;;52.97;14.65;;;10.90;53.60;;;;;;5036085;28;20471;-79
2021/11/18 11:02:56;;;;;;;46.30;16.50;;;11.00;50.30;;;;;;5046638;28;20445;-80
2021/11/18 11:05:25;;;;;;;45.60;15.38;;;11.10;52.00;;;;;;5025837;28;20411;-78
2021/11/18 11:07:51;;;;;;;53.85;16.40;;;11.20;51.40;;;;;;5025488;28;20391;-80
2021/11/18 11:10:20;;;;;;;40.73;15.27;;;11.30;48.80;;;;;;5057126;28;20437;-77
2021/11/18 11:13:10;;;;;;;48.27;15.30;;;11.40;48.30;;;;;;5038633;28;20405;-80
2021/11/18 11:16:29;;;;;;;46.65;14.15;;;11.40;47.80;;;;;;5036101;28;20520;-78
2021/11/18 11:19:30;;;;;;;41.33;14.30;;;11.40;47.70;;;;;;4971947;28;20428;-78
2021/11/18 11:22:03;;;;;;;54.92;16.13;;;11.20;48.90;;;;;;5032006;28;20399;-78
2021/11/18 11:25:07;;;;;;;46.60;14.10;;;11.20;51.00;;;;;;5041794;28;20405;-78
2021/11/18 11:27:51;;;;;;;43.80;13.88;;;11.20;49.10;;;;;;5042161;28;20433;-77
2021/11/18 11:30:50;;;;;;;55.47;15.95;;;11.20;48.60;;;;;;5028050;28;20387;-80
2021/11/18 11:33:23;;;;;;;40.50;11.87;;;11.20;49.90;;;;;;5017416;28;20796;-79
2021/11/18 11:36:07;;;;;;;46.88;11.73;;;11.20;47.20;;;;;;5037364;28;20391;-78
2021/11/18 11:38:59;;;;;;;46.00;12.35;;;11.10;48.80;;;;;;5019721;28;20413;-78
2021/11/18 11:41:27;;;;;;;36.20;10.82;;;11.20;48.70;;;;;;5020730;28;20403;-79
2021/11/18 11:44:11;;;;;;;37.58;9.90;;;11.20;47.10;;;;;;5051845;28;20439;-79
2021/11/18 11:47:13;;;;;;;34.17;9.43;;;11.40;46.40;;;;;;5051576;28;20406;-77
2021/11/18 11:50:02;;;;;;;36.17;9.80;;;11.50;44.50;;;;;;5014273;28;20399;-77
2021/11/18 11:52:43;;;;;;;36.50;9.55;;;11.60;44.70;;;;;;5031251;28;20728;-77
2021/11/18 11:55:09;;;;;;;37.03;9.00;;;11.60;45.10;;;;;;5047313;28;20394;-78
2021/11/18 11:57:41;;;;;;;33.70;9.27;;;11.60;42.50;;;;;;5024750;28;20740;-77
2021/11/18 12:00:31;;;;;;;38.40;9.60;;;11.50;44.50;;;;;;5041860;28;20426;-78
2021/11/18 12:03:24;;;;;;;39.17;9.52;;;11.50;44.70;;;;;;5033754;28;20402;-77
2021/11/18 12:06:15;;;;;;;39.05;9.00;;;11.60;42.80;;;;;;5037302;28;20426;-77
2021/11/18 12:08:53;;;;;;;32.05;8.85;;;11.50;42.70;;;;;;5040855;28;20382;-79
2021/11/18 12:11:35;;;;;;;26.10;8.52;;;11.50;42.40;;;;;;5023428;28;20392;-77
2021/11/18 12:14:17;;;;;;;33.85;8.60;;;11.40;42.30;;;;;;5030655;28;20709;-75
2021/11/18 12:17:07;;;;;;;35.15;8.10;;;11.50;42.10;;;;;;5009426;28;20397;-74
2021/11/18 12:19:55;;;;;;;30.73;7.72;;;11.50;42.20;;;;;;5018503;28;20396;-80
2021/11/18 12:22:39;;;;;;;36.35;7.97;;;11.40;42.10;;;;;;5014565;28;20395;-75
2021/11/18 12:25:15;;;;;;;37.70;8.80;;;11.40;42.70;;;;;;5037332;28;20407;-73
2021/11/18 12:28:07;;;;;;;32.75;8.32;;;11.40;43.10;;;;;;5033877;28;20384;-75
2021/11/18 12:31:02;;;;;;;32.65;8.10;;;11.40;42.60;;;;;;5041412;28;20964;-75
2021/11/18 12:33:27;;;;;;;31.67;8.88;;;11.40;43.50;;;;;;5033053;28;20375;-80
2021/11/18 12:36:05;;;;;;;33.90;8.20;;;11.50;42.70;;;;;;5040788;28;20420;-79
2021/11/18 12:38:54;;;;;;;39.78;8.63;;;11.60;41.70;;;;;;5020108;28;20406;-77
2021/11/18 12:41:42;;;;;;;25.67;8.10;;;11.60;41.90;;;;;;5043189;28;20386;-78
2021/11/18 12:44:32;;;;;;;26.27;8.00;;;11.60;41.30;;;;;;5042054;28;20383;-80
2021/11/18 12:47:14;;;;;;;28.77;7.90;;;11.60;42.60;;;;;;5019751;28;20992;-80
2021/11/18 12:49:55;;;;;;;36.70;8.20;;;11.50;42.00;;;;;;5026016;28;20393;-78
2021/11/18 12:52:34;;;;;;;41.15;8.70;;;11.50;41.70;;;;;;5028184;28;20418;-80
2021/11/18 12:55:11;;;;;;;26.05;8.45;;;11.60;41.70;;;;;;5031699;28;20398;-79
2021/11/18 12:57:46;;;;;;;33.40;7.75;;;11.50;42.30;;;;;;5044942;28;20458;-79
2021/11/18 13:00:36;;;;;;;35.97;8.48;;;11.50;41.30;;;;;;5031885;28;20375;-78
2021/11/18 13:03:05;;;;;;;28.63;7.97;;;11.50;40.90;;;;;;5031318;28;20382;-80
2021/11/18 13:05:30;;;;;;;32.08;8.77;;;11.50;41.70;;;;;;5024801;28;20410;-78
2021/11/18 13:07:57;;;;;;;34.87;8.70;;;11.50;41.90;;;;;;5026749;28;20406;-78
2021/11/18 13:10:32;;;;;;;26.95;7.50;;;11.60;41.20;;;;;;5039318;28;20443;-80
2021/11/18 13:13:03;;;;;;;27.20;7.00;;;11.50;41.40;;;;;;5042177;28;20389;-81